createdAt,value
2023-12-23T00:01:15.510Z,54.7
2023-12-23T00:02:31.636Z,54.7
2023-12-23T00:03:47.780Z,54.6
2023-12-23T00:05:03.932Z,54.6
2023-12-23T00:06:20.123Z,54.6
2023-12-23T00:07:35.349Z,54.6
2023-12-23T00:08:50.571Z,54.6
2023-12-23T00:10:06.700Z,54.7
2023-12-23T00:11:22.827Z,54.8
2023-12-23T00:12:38.968Z,54.8
2023-12-23T00:13:55.099Z,54.8
2023-12-23T00:15:11.240Z,54.8
2023-12-23T00:16:27.364Z,54.8
2023-12-23T00:17:43.508Z,54.7
2023-12-23T00:18:59.638Z,54.7
2023-12-23T00:20:15.767Z,54.7
2023-12-23T00:21:31.926Z,54.7
2023-12-23T00:22:48.056Z,54.7
2023-12-23T00:24:04.193Z,54.7
2023-12-23T00:25:20.330Z,54.7
2023-12-23T00:26:36.458Z,54.7
2023-12-23T00:27:52.597Z,54.7
2023-12-23T00:29:08.743Z,54.7
2023-12-23T00:30:24.000Z,54.7
2023-12-23T00:31:40.996Z,54.6
2023-12-23T00:32:57.141Z,54.6
2023-12-23T00:34:13.288Z,54.6
2023-12-23T00:35:29.422Z,54.7
2023-12-23T00:36:45.560Z,54.7
2023-12-23T00:38:01.687Z,54.7
2023-12-23T00:39:17.820Z,54.6
2023-12-23T00:40:34.032Z,54.6
2023-12-23T00:41:49.274Z,54.6
2023-12-23T00:43:05.483Z,54.6
2023-12-23T00:44:20.672Z,54.7
2023-12-23T00:45:36.807Z,54.7
2023-12-23T00:46:52.949Z,54.6
2023-12-23T00:48:09.080Z,54.7
2023-12-23T00:49:25.217Z,54.7
2023-12-23T00:50:41.357Z,54.7
2023-12-23T00:51:57.486Z,54.7
2023-12-23T00:53:13.629Z,54.8
2023-12-23T00:54:29.762Z,54.8
2023-12-23T00:55:45.887Z,54.8
2023-12-23T00:57:02.037Z,54.7
2023-12-23T00:58:18.181Z,54.7
2023-12-23T00:59:34.315Z,54.8
2023-12-23T01:00:50.448Z,54.8
2023-12-23T01:02:06.572Z,54.8
2023-12-23T01:03:22.715Z,54.8
2023-12-23T01:04:38.858Z,54.8
2023-12-23T01:05:55.000Z,54.8
2023-12-23T01:07:11.133Z,54.8
2023-12-23T01:08:27.247Z,54.8
2023-12-23T01:09:43.406Z,54.8
2023-12-23T01:10:59.528Z,54.8
2023-12-23T01:12:15.665Z,54.8
2023-12-23T01:13:31.795Z,54.8
2023-12-23T01:14:47.941Z,54.9
2023-12-23T01:16:04.145Z,54.9
2023-12-23T01:17:19.386Z,54.9
2023-12-23T01:18:34.584Z,54.9
2023-12-23T01:19:50.732Z,54.9
2023-12-23T01:21:06.869Z,54.9
2023-12-23T01:22:22.999Z,54.9
2023-12-23T01:23:39.126Z,55
2023-12-23T01:24:55.275Z,54.9
2023-12-23T01:26:11.414Z,54.9
2023-12-23T01:27:27.549Z,54.9
2023-12-23T01:28:43.690Z,54.8
2023-12-23T01:29:59.820Z,54.8
2023-12-23T01:31:15.944Z,54.9
2023-12-23T01:32:32.096Z,54.8
2023-12-23T01:33:48.226Z,54.8
2023-12-23T01:35:04.371Z,54.8
2023-12-23T01:36:20.491Z,54.8
2023-12-23T01:37:36.630Z,54.8
2023-12-23T01:38:52.773Z,54.8
2023-12-23T01:40:08.907Z,54.8
2023-12-23T01:41:25.048Z,54.8
2023-12-23T01:42:41.180Z,54.8
2023-12-23T01:43:57.318Z,54.8
2023-12-23T01:45:13.459Z,54.8
2023-12-23T01:46:29.596Z,54.8
2023-12-23T01:47:45.721Z,54.8
2023-12-23T01:49:01.862Z,54.8
2023-12-23T01:50:18.048Z,54.9
2023-12-23T01:51:33.297Z,54.9
2023-12-23T01:52:48.508Z,54.9
2023-12-23T01:54:03.647Z,54.9
2023-12-23T01:55:19.793Z,55
2023-12-23T01:56:35.922Z,54.9
2023-12-23T01:57:52.045Z,55
2023-12-23T01:59:08.189Z,55
2023-12-23T02:00:24.324Z,55
2023-12-23T02:01:40.476Z,55
2023-12-23T02:02:56.594Z,55
2023-12-23T02:04:12.737Z,55
2023-12-23T02:05:28.861Z,55.1
2023-12-23T02:06:45.008Z,55.1
2023-12-23T02:08:01.154Z,55.1
2023-12-23T02:09:17.284Z,55.1
2023-12-23T02:10:33.408Z,55.1
2023-12-23T02:11:49.545Z,55.1
2023-12-23T02:13:05.709Z,55.2
2023-12-23T02:14:21.833Z,55.2
2023-12-23T02:15:37.961Z,55.1
2023-12-23T02:16:54.100Z,55.1
2023-12-23T02:18:10.230Z,55.1
2023-12-23T02:19:26.379Z,55.2
2023-12-23T02:20:42.511Z,55.2
2023-12-23T02:21:58.658Z,55.2
2023-12-23T02:23:14.787Z,55.2
2023-12-23T02:24:30.921Z,55.1
2023-12-23T02:25:47.055Z,55.2
2023-12-23T02:27:03.208Z,55.2
2023-12-23T02:28:19.327Z,55.2
2023-12-23T02:29:35.474Z,55.2
2023-12-23T02:30:51.605Z,55.3
2023-12-23T02:32:07.753Z,55.3
2023-12-23T02:33:23.890Z,55.3
2023-12-23T02:34:40.008Z,55.3
2023-12-23T02:35:56.149Z,55.3
2023-12-23T02:37:12.286Z,55.3
2023-12-23T02:38:28.435Z,55.3
2023-12-23T02:39:44.574Z,55.3
2023-12-23T02:41:00.749Z,55.3
2023-12-23T02:42:16.005Z,55.3
2023-12-23T02:43:31.201Z,55.3
2023-12-23T02:44:47.342Z,55.3
2023-12-23T02:46:03.478Z,55.2
2023-12-23T02:47:19.613Z,55.2
2023-12-23T02:48:35.752Z,55.2
2023-12-23T02:49:51.888Z,55.2
2023-12-23T02:51:08.030Z,55.2
2023-12-23T02:52:24.146Z,55.2
2023-12-23T02:53:40.299Z,55.2
2023-12-23T02:54:56.439Z,55.3
2023-12-23T02:56:12.580Z,55.2
2023-12-23T02:57:28.703Z,55.3
2023-12-23T02:58:44.849Z,55.2
2023-12-23T03:00:00.979Z,55.1
2023-12-23T03:01:17.127Z,55.1
2023-12-23T03:02:33.260Z,55.1
2023-12-23T03:03:49.391Z,55.1
2023-12-23T03:05:05.521Z,55.1
2023-12-23T03:06:21.648Z,55.1
2023-12-23T03:07:37.808Z,55.1
2023-12-23T03:08:53.940Z,55.1
2023-12-23T03:10:10.078Z,55
2023-12-23T03:11:26.205Z,55.1
2023-12-23T03:12:42.340Z,55
2023-12-23T03:13:58.480Z,55
2023-12-23T03:15:14.690Z,55
2023-12-23T03:16:29.920Z,55
2023-12-23T03:17:46.109Z,55
2023-12-23T03:19:01.311Z,55
2023-12-23T03:20:17.443Z,55
2023-12-23T03:21:33.591Z,55
2023-12-23T03:24:05.859Z,55
2023-12-23T03:25:21.998Z,55
2023-12-23T03:26:38.132Z,55
2023-12-23T03:27:54.280Z,55
2023-12-23T03:29:10.409Z,55
2023-12-23T03:30:26.545Z,54.9
2023-12-23T03:31:42.694Z,54.9
2023-12-23T03:32:58.815Z,54.9
2023-12-23T03:34:14.950Z,54.8
2023-12-23T03:35:31.096Z,54.8
2023-12-23T03:36:47.228Z,54.8
2023-12-23T03:38:03.372Z,54.8
2023-12-23T03:39:19.493Z,54.9
2023-12-23T03:40:35.632Z,54.9
2023-12-23T03:41:51.773Z,54.9
2023-12-23T03:43:07.916Z,54.9
2023-12-23T03:44:24.053Z,54.9
2023-12-23T03:45:40.191Z,54.9
2023-12-23T03:46:56.310Z,54.9
2023-12-23T03:48:12.463Z,54.9
2023-12-23T03:49:28.602Z,54.9
2023-12-23T03:50:44.788Z,54.9
2023-12-23T03:52:00.043Z,54.8
2023-12-23T03:53:15.233Z,54.8
2023-12-23T03:54:31.365Z,54.9
2023-12-23T03:55:47.509Z,54.8
2023-12-23T03:57:03.647Z,54.9
2023-12-23T03:58:19.766Z,54.8
2023-12-23T03:59:35.926Z,54.8
2023-12-23T04:00:52.061Z,54.8
2023-12-23T04:02:08.199Z,54.8
2023-12-23T04:03:24.319Z,54.8
2023-12-23T04:04:40.462Z,54.8
2023-12-23T04:05:56.610Z,54.8
2023-12-23T04:07:12.743Z,54.8
2023-12-23T04:08:28.880Z,54.8
2023-12-23T04:09:45.016Z,54.8
2023-12-23T04:11:01.152Z,54.8
2023-12-23T04:12:17.301Z,54.8
2023-12-23T04:13:33.432Z,54.8
2023-12-23T04:14:49.558Z,54.8
2023-12-23T04:16:05.698Z,54.8
2023-12-23T04:17:21.835Z,54.8
2023-12-23T04:18:37.981Z,54.8
2023-12-23T04:21:10.245Z,54.8
2023-12-23T04:22:26.384Z,54.7
2023-12-23T04:23:42.503Z,54.8
2023-12-23T04:24:58.725Z,54.8
2023-12-23T04:26:13.946Z,54.7
2023-12-23T04:27:29.172Z,54.7
2023-12-23T04:28:45.303Z,54.7
2023-12-23T04:30:01.438Z,54.7
2023-12-23T04:31:17.573Z,54.7
2023-12-23T04:32:33.716Z,54.7
2023-12-23T04:33:49.842Z,54.7
2023-12-23T04:35:05.991Z,54.6
2023-12-23T04:36:22.124Z,54.7
2023-12-23T04:37:38.266Z,54.7
2023-12-23T04:38:54.394Z,54.7
2023-12-23T04:40:10.529Z,54.7
2023-12-23T04:41:26.683Z,54.6
2023-12-23T04:42:42.812Z,54.6
2023-12-23T04:43:58.937Z,54.6
2023-12-23T04:45:15.083Z,54.6
2023-12-23T04:46:31.216Z,54.6
2023-12-23T04:47:47.351Z,54.6
2023-12-23T04:49:03.500Z,54.6
2023-12-23T04:50:19.632Z,54.6
2023-12-23T04:51:35.756Z,54.6
2023-12-23T04:52:51.891Z,54.5
2023-12-23T04:54:08.049Z,54.5
2023-12-23T04:55:24.171Z,54.5
2023-12-23T04:56:40.304Z,54.6
2023-12-23T04:57:56.452Z,54.6
2023-12-23T04:59:12.636Z,54.6
2023-12-23T05:00:27.890Z,54.6
2023-12-23T05:01:44.085Z,54.6
2023-12-23T05:02:59.302Z,54.6
2023-12-23T05:04:15.433Z,54.6
2023-12-23T05:05:31.567Z,54.6
2023-12-23T05:06:47.705Z,54.6
2023-12-23T05:08:03.842Z,54.6
2023-12-23T05:09:19.964Z,54.6
2023-12-23T05:10:36.130Z,54.6
2023-12-23T05:11:52.247Z,54.5
2023-12-23T05:13:08.390Z,54.5
2023-12-23T05:14:24.514Z,54.5
2023-12-23T05:15:40.665Z,54.5
2023-12-23T05:16:56.806Z,54.5
2023-12-23T05:18:12.929Z,54.5
2023-12-23T05:19:29.074Z,54.5
2023-12-23T05:20:45.213Z,54.5
2023-12-23T05:22:01.335Z,54.5
2023-12-23T05:23:17.495Z,54.5
2023-12-23T05:24:33.629Z,54.5
2023-12-23T05:25:49.753Z,54.5
2023-12-23T05:27:05.884Z,54.5
2023-12-23T05:28:22.015Z,54.5
2023-12-23T05:29:38.169Z,54.5
2023-12-23T05:30:54.302Z,54.5
2023-12-23T05:32:10.435Z,54.5
2023-12-23T05:33:26.574Z,54.6
2023-12-23T05:34:42.759Z,54.6
2023-12-23T05:35:57.998Z,54.6
2023-12-23T05:37:13.206Z,54.6
2023-12-23T05:38:28.365Z,54.6
2023-12-23T05:39:44.503Z,54.6
2023-12-23T05:41:00.640Z,54.7
2023-12-23T05:42:16.761Z,54.7
2023-12-23T05:43:32.898Z,54.6
2023-12-23T05:44:49.040Z,54.6
2023-12-23T05:46:05.182Z,54.6
2023-12-23T05:47:21.308Z,54.6
2023-12-23T05:48:37.453Z,54.6
2023-12-23T05:49:53.582Z,54.6
2023-12-23T05:51:09.738Z,54.5
2023-12-23T05:52:25.869Z,54.6
2023-12-23T05:53:42.007Z,54.6
2023-12-23T05:54:58.125Z,54.6
2023-12-23T05:56:14.265Z,54.6
2023-12-23T05:57:30.416Z,54.6
2023-12-23T05:58:46.557Z,54.6
2023-12-23T06:00:02.676Z,54.6
2023-12-23T06:01:18.807Z,54.6
2023-12-23T06:02:34.957Z,54.6
2023-12-23T06:03:51.102Z,54.6
2023-12-23T06:05:07.237Z,54.5
2023-12-23T06:06:23.367Z,54.5
2023-12-23T06:07:39.504Z,54.5
2023-12-23T06:08:55.638Z,54.5
2023-12-23T06:10:11.787Z,54.5
2023-12-23T06:11:27.912Z,54.5
2023-12-23T06:12:44.046Z,54.5
2023-12-23T06:14:00.189Z,54.5
2023-12-23T06:15:16.315Z,54.5
2023-12-23T06:16:32.461Z,54.5
2023-12-23T06:17:48.589Z,54.6
2023-12-23T06:19:04.753Z,54.6
2023-12-23T06:20:20.881Z,54.6
2023-12-23T06:21:37.013Z,54.6
2023-12-23T06:22:53.169Z,54.6
2023-12-23T06:24:09.295Z,54.6
2023-12-23T06:25:25.499Z,54.6
2023-12-23T06:26:40.737Z,54.6
2023-12-23T06:27:55.943Z,54.5
2023-12-23T06:29:12.074Z,54.5
2023-12-23T06:30:28.215Z,54.5
2023-12-23T06:31:44.336Z,54.6
2023-12-23T06:33:00.491Z,54.6
2023-12-23T06:34:16.633Z,54.6
2023-12-23T06:35:32.749Z,54.5
2023-12-23T06:36:48.894Z,54.6
2023-12-23T06:38:05.028Z,54.6
2023-12-23T06:39:21.180Z,54.6
2023-12-23T06:40:37.318Z,54.6
2023-12-23T06:41:53.433Z,54.6
2023-12-23T06:43:09.579Z,54.6
2023-12-23T06:44:25.704Z,54.6
2023-12-23T06:45:41.856Z,54.6
2023-12-23T06:46:57.992Z,54.6
2023-12-23T06:48:14.128Z,54.6
2023-12-23T06:49:30.264Z,54.6
2023-12-23T06:50:46.399Z,54.6
2023-12-23T06:52:02.536Z,54.6
2023-12-23T06:53:18.672Z,54.6
2023-12-23T06:54:34.805Z,54.6
2023-12-23T06:55:50.943Z,54.6
2023-12-23T06:57:07.069Z,54.6
2023-12-23T06:58:23.227Z,54.6
2023-12-23T06:59:39.423Z,54.6
2023-12-23T07:00:54.648Z,54.6
2023-12-23T07:02:09.867Z,54.6
2023-12-23T07:03:26.008Z,54.6
2023-12-23T07:04:42.128Z,54.6
2023-12-23T07:05:58.272Z,54.6
2023-12-23T07:07:14.400Z,54.6
2023-12-23T07:08:30.550Z,54.6
2023-12-23T07:09:46.689Z,54.6
2023-12-23T07:11:02.811Z,54.6
2023-12-23T07:12:18.944Z,54.7
2023-12-23T07:13:35.075Z,54.7
2023-12-23T07:14:51.222Z,54.7
2023-12-23T07:16:07.370Z,54.7
2023-12-23T07:17:23.499Z,54.8
2023-12-23T07:18:39.631Z,54.8
2023-12-23T07:19:55.777Z,54.8
2023-12-23T07:21:11.917Z,54.8
2023-12-23T07:22:28.045Z,54.8
2023-12-23T07:23:44.189Z,54.8
2023-12-23T07:25:00.307Z,54.8
2023-12-23T07:26:16.449Z,54.7
2023-12-23T07:27:32.589Z,54.8
2023-12-23T07:28:48.742Z,54.7
2023-12-23T07:30:04.857Z,54.7
2023-12-23T07:31:21.005Z,54.7
2023-12-23T07:32:37.124Z,54.7
2023-12-23T07:33:53.350Z,54.7
2023-12-23T07:35:08.590Z,54.6
2023-12-23T07:36:24.778Z,54.6
2023-12-23T07:37:39.976Z,54.7
2023-12-23T07:38:56.108Z,54.7
2023-12-23T07:40:12.257Z,54.8
2023-12-23T07:41:28.000Z,54.8
2023-12-23T07:42:44.514Z,54.8
2023-12-23T07:44:00.656Z,54.8
2023-12-23T07:45:16.801Z,54.8
2023-12-23T07:46:32.935Z,54.8
2023-12-23T07:47:49.072Z,54.8
2023-12-23T07:49:05.189Z,54.8
2023-12-23T07:50:21.338Z,54.8
2023-12-23T07:51:37.480Z,54.9
2023-12-23T07:52:53.610Z,54.9
2023-12-23T07:54:09.741Z,54.9
2023-12-23T07:55:25.872Z,54.8
2023-12-23T07:56:42.031Z,54.9
2023-12-23T07:57:58.158Z,55
2023-12-23T07:59:14.306Z,54.9
2023-12-23T08:00:30.434Z,54.9
2023-12-23T08:01:46.559Z,54.9
2023-12-23T08:03:02.708Z,54.9
2023-12-23T08:04:18.856Z,54.9
2023-12-23T08:05:34.988Z,54.9
2023-12-23T08:06:51.115Z,54.9
2023-12-23T08:08:07.248Z,54.9
2023-12-23T08:09:23.447Z,54.9
2023-12-23T08:10:38.700Z,54.8
2023-12-23T08:11:53.902Z,54.9
2023-12-23T08:13:10.055Z,54.9
2023-12-23T08:14:26.177Z,54.9
2023-12-23T08:15:42.322Z,54.9
2023-12-23T08:16:58.444Z,54.9
2023-12-23T08:18:14.578Z,54.9
2023-12-23T08:19:30.728Z,54.9
2023-12-23T08:20:46.866Z,54.9
2023-12-23T08:22:03.004Z,54.9
2023-12-23T08:23:19.139Z,54.9
2023-12-23T08:24:35.262Z,54.9
2023-12-23T08:25:51.408Z,54.8
2023-12-23T08:27:07.537Z,54.8
2023-12-23T08:28:23.671Z,54.8
2023-12-23T08:29:39.816Z,54.8
2023-12-23T08:30:55.955Z,54.8
2023-12-23T08:32:12.105Z,54.9
2023-12-23T08:33:28.238Z,54.8
2023-12-23T08:34:44.370Z,54.8
2023-12-23T08:36:00.502Z,54.8
2023-12-23T08:37:16.633Z,54.8
2023-12-23T08:39:48.911Z,54.8
2023-12-23T08:41:05.056Z,54.8
2023-12-23T08:42:21.188Z,54.8
2023-12-23T08:43:37.381Z,54.9
2023-12-23T08:44:52.613Z,54.9
2023-12-23T08:46:07.826Z,54.9
2023-12-23T08:47:23.963Z,54.9
2023-12-23T08:48:40.097Z,54.8
2023-12-23T08:49:56.239Z,54.9
2023-12-23T08:51:12.368Z,54.8
2023-12-23T08:52:28.498Z,54.9
2023-12-23T08:53:44.639Z,54.8
2023-12-23T08:55:00.789Z,54.8
2023-12-23T08:56:16.931Z,54.7
2023-12-23T08:57:33.057Z,54.7
2023-12-23T08:58:49.180Z,54.7
2023-12-23T09:00:05.328Z,54.7
2023-12-23T09:01:21.462Z,54.6
2023-12-23T09:02:37.607Z,54.6
2023-12-23T09:03:53.740Z,54.6
2023-12-23T09:05:09.880Z,54.6
2023-12-23T09:06:26.011Z,54.6
2023-12-23T09:07:42.151Z,54.7
2023-12-23T09:08:58.283Z,54.7
2023-12-23T09:10:14.432Z,54.7
2023-12-23T09:11:30.566Z,54.7
2023-12-23T09:12:46.694Z,54.7
2023-12-23T09:14:02.843Z,54.7
2023-12-23T09:15:18.980Z,54.7
2023-12-23T09:16:35.096Z,54.7
2023-12-23T09:17:51.294Z,54.6
2023-12-23T09:19:06.555Z,54.6
2023-12-23T09:20:22.753Z,54.6
2023-12-23T09:21:37.967Z,54.7
2023-12-23T09:22:54.082Z,54.7
2023-12-23T09:24:10.248Z,54.7
2023-12-23T09:25:26.382Z,54.7
2023-12-23T09:26:42.508Z,54.7
2023-12-23T09:27:58.648Z,54.7
2023-12-23T09:29:14.777Z,54.6
2023-12-23T09:30:30.913Z,54.6
2023-12-23T09:31:47.057Z,54.7
2023-12-23T09:33:03.193Z,54.7
2023-12-23T09:34:19.317Z,54.7
2023-12-23T09:35:35.464Z,54.6
2023-12-23T09:36:51.612Z,54.6
2023-12-23T09:38:07.741Z,54.6
2023-12-23T09:40:40.006Z,54.5
2023-12-23T09:41:56.148Z,54.6
2023-12-23T09:43:12.282Z,54.6
2023-12-23T09:44:28.428Z,54.5
2023-12-23T09:45:44.562Z,54.5
2023-12-23T09:47:00.698Z,54.5
2023-12-23T09:48:16.827Z,54.5
2023-12-23T09:49:32.970Z,54.5
2023-12-23T09:50:49.109Z,54.5
2023-12-23T09:52:05.249Z,54.5
2023-12-23T09:53:21.435Z,54.6
2023-12-23T09:54:36.668Z,54.6
2023-12-23T09:55:51.887Z,54.6
2023-12-23T09:57:07.032Z,54.7
2023-12-23T09:58:23.184Z,54.6
2023-12-23T09:59:39.310Z,54.6
2023-12-23T10:00:55.452Z,54.6
2023-12-23T10:02:11.000Z,54.6
2023-12-23T10:03:27.708Z,54.5
2023-12-23T10:04:43.861Z,54.5
2023-12-23T10:06:00.007Z,54.5
2023-12-23T10:07:16.139Z,54.5
2023-12-23T10:08:32.270Z,54.6
2023-12-23T10:09:48.401Z,54.6
2023-12-23T10:11:04.537Z,54.6
2023-12-23T10:12:20.688Z,54.6
2023-12-23T10:13:36.805Z,54.6
2023-12-23T10:14:52.941Z,54.6
2023-12-23T10:16:09.082Z,54.6
2023-12-23T10:17:25.222Z,54.6
2023-12-23T10:18:41.364Z,54.6
2023-12-23T10:19:57.497Z,54.6
2023-12-23T10:21:13.635Z,54.6
2023-12-23T10:22:29.765Z,54.6
2023-12-23T10:23:45.908Z,54.6
2023-12-23T10:25:02.056Z,54.5
2023-12-23T10:26:18.173Z,54.5
2023-12-23T10:27:34.321Z,54.5
2023-12-23T10:28:50.444Z,54.4
2023-12-23T10:30:06.604Z,54.4
2023-12-23T10:31:22.737Z,54.4
2023-12-23T10:32:38.856Z,54.4
2023-12-23T10:33:54.993Z,54.4
2023-12-23T10:35:11.141Z,54.4
2023-12-23T10:36:27.291Z,54.4
2023-12-23T10:37:43.413Z,54.4
2023-12-23T10:38:59.551Z,54.4
2023-12-23T10:40:15.686Z,54.5
2023-12-23T10:41:31.806Z,54.4
2023-12-23T10:42:47.955Z,54.4
2023-12-23T10:44:04.164Z,54.5
2023-12-23T10:45:19.399Z,54.5
2023-12-23T10:46:34.604Z,54.4
2023-12-23T10:47:50.744Z,54.5
2023-12-23T10:49:06.872Z,54.5
2023-12-23T10:50:23.006Z,54.5
2023-12-23T10:51:39.145Z,54.6
2023-12-23T10:52:55.283Z,54.5
2023-12-23T10:54:11.408Z,54.5
2023-12-23T10:55:27.559Z,54.5
2023-12-23T10:56:43.674Z,54.5
2023-12-23T10:57:59.809Z,54.5
2023-12-23T10:59:15.957Z,54.5
2023-12-23T11:00:32.107Z,54.5
2023-12-23T11:01:48.238Z,54.4
2023-12-23T11:03:04.361Z,54.4
2023-12-23T11:04:20.495Z,54.4
2023-12-23T11:05:36.654Z,54.4
2023-12-23T11:06:52.775Z,54.3
2023-12-23T11:08:08.909Z,54.3
2023-12-23T11:09:25.049Z,54.3
2023-12-23T11:10:41.189Z,54.3
2023-12-23T11:11:57.334Z,54.3
2023-12-23T11:13:13.469Z,54.3
2023-12-23T11:14:29.591Z,54.3
2023-12-23T11:15:45.723Z,54.3
2023-12-23T11:17:01.871Z,54.2
2023-12-23T11:18:18.079Z,54.3
2023-12-23T11:19:33.311Z,54.1
2023-12-23T11:20:48.519Z,54.3
2023-12-23T11:22:04.656Z,54.3
2023-12-23T11:23:20.801Z,54.2
2023-12-23T11:24:36.939Z,54.2
2023-12-23T11:25:53.059Z,54.3
2023-12-23T11:27:09.191Z,54.1
2023-12-23T11:28:25.350Z,54.2
2023-12-23T11:29:41.470Z,54.1
2023-12-23T11:30:57.614Z,54.3
2023-12-23T11:32:13.754Z,54.3
2023-12-23T11:33:29.879Z,54.3
2023-12-23T11:34:46.032Z,54.3
2023-12-23T11:36:02.155Z,54.3
2023-12-23T11:37:18.285Z,54.1
2023-12-23T11:38:34.433Z,54.1
2023-12-23T11:39:50.570Z,54.1
2023-12-23T11:41:06.701Z,54.1
2023-12-23T11:42:22.834Z,54.1
2023-12-23T11:43:38.985Z,54.1
2023-12-23T11:44:55.112Z,54.1
2023-12-23T11:46:11.239Z,54.1
2023-12-23T11:47:27.386Z,54.3
2023-12-23T11:48:43.535Z,54.3
2023-12-23T11:49:59.654Z,54.3
2023-12-23T11:51:15.794Z,54.3
2023-12-23T11:52:31.992Z,54.3
2023-12-23T11:53:47.235Z,54.3
2023-12-23T11:55:03.419Z,54.3
2023-12-23T11:56:18.617Z,54.3
2023-12-23T11:57:34.777Z,54.3
2023-12-23T11:58:50.905Z,54.1
2023-12-23T12:00:07.028Z,54.1
2023-12-23T12:01:23.172Z,54.3
2023-12-23T12:02:39.299Z,54.1
2023-12-23T12:03:55.442Z,54.3
2023-12-23T12:05:11.582Z,54.3
2023-12-23T12:06:27.712Z,54.1
2023-12-23T12:07:43.851Z,54.1
2023-12-23T12:08:59.993Z,54.1
2023-12-23T12:10:16.131Z,54.3
2023-12-23T12:11:32.268Z,54.1
2023-12-23T12:12:48.408Z,54.3
2023-12-23T12:14:04.527Z,54.3
2023-12-23T12:15:20.668Z,54.3
2023-12-23T12:16:36.821Z,54.4
2023-12-23T12:17:52.946Z,54.3
2023-12-23T12:19:09.088Z,54.4
2023-12-23T12:20:25.220Z,54.4
2023-12-23T12:21:41.347Z,54.4
2023-12-23T12:22:57.504Z,54.4
2023-12-23T12:24:13.631Z,54.4
2023-12-23T12:25:29.758Z,54.4
2023-12-23T12:26:45.892Z,54.4
2023-12-23T12:28:02.090Z,54.4
2023-12-23T12:29:17.340Z,54.4
2023-12-23T12:30:32.548Z,54.4
2023-12-23T12:31:48.669Z,54.4
2023-12-23T12:33:04.821Z,54.4
2023-12-23T12:34:20.961Z,54.4
2023-12-23T12:35:37.088Z,54.4
2023-12-23T12:36:53.223Z,54.4
2023-12-23T12:38:09.360Z,54.4
2023-12-23T12:39:25.514Z,54.4
2023-12-23T12:40:41.638Z,54.4
2023-12-23T12:41:57.780Z,54.4
2023-12-23T12:43:13.898Z,54.5
2023-12-23T12:44:30.031Z,54.5
2023-12-23T12:45:46.189Z,54.4
2023-12-23T12:47:02.316Z,54.4
2023-12-23T12:48:18.459Z,54.4
2023-12-23T12:49:34.596Z,54.4
2023-12-23T12:50:50.727Z,54.4
2023-12-23T12:52:06.862Z,54.3
2023-12-23T12:53:22.993Z,54.4
2023-12-23T12:54:39.126Z,54.4
2023-12-23T12:55:55.261Z,54.4
2023-12-23T12:57:11.413Z,54.4
2023-12-23T12:58:27.555Z,54.4
2023-12-23T12:59:43.681Z,54.4
2023-12-23T13:00:59.829Z,54.4
2023-12-23T13:02:16.017Z,54.4
2023-12-23T13:03:31.260Z,54.4
2023-12-23T13:04:46.454Z,54.3
2023-12-23T13:06:01.619Z,54.4
2023-12-23T13:07:17.757Z,54.4
2023-12-23T13:08:33.894Z,54.4
2023-12-23T13:09:50.027Z,54.4
2023-12-23T13:11:06.163Z,54.4
2023-12-23T13:12:22.302Z,54.5
2023-12-23T13:13:38.436Z,54.4
2023-12-23T13:14:54.578Z,54.4
2023-12-23T13:16:10.700Z,54.4
2023-12-23T13:17:26.842Z,54.4
2023-12-23T13:18:42.968Z,54.4
2023-12-23T13:19:59.123Z,54.4
2023-12-23T13:21:15.258Z,54.4
2023-12-23T13:22:31.385Z,54.5
2023-12-23T13:23:47.522Z,54.5
2023-12-23T13:25:03.660Z,54.4
2023-12-23T13:26:19.801Z,54.5
2023-12-23T13:27:35.941Z,54.5
2023-12-23T13:28:52.081Z,54.5
2023-12-23T13:30:08.210Z,54.5
2023-12-23T13:31:24.347Z,54.5
2023-12-23T13:32:40.489Z,54.4
2023-12-23T13:33:56.628Z,54.4
2023-12-23T13:35:12.750Z,54.4
2023-12-23T13:36:28.889Z,54.4
2023-12-23T13:37:45.018Z,54.5
2023-12-23T13:39:01.172Z,54.5
2023-12-23T13:40:17.309Z,54.5
2023-12-23T13:41:33.434Z,54.4
2023-12-23T13:42:49.568Z,54.5
2023-12-23T13:44:05.711Z,54.4
2023-12-23T13:45:21.852Z,54.4
2023-12-23T13:47:54.119Z,54.4
2023-12-23T13:49:10.260Z,54.4
2023-12-23T13:50:26.396Z,54.4
2023-12-23T13:51:42.536Z,54.4
2023-12-23T13:52:58.730Z,54.4
2023-12-23T13:54:13.989Z,54.3
2023-12-23T13:55:29.206Z,54.3
2023-12-23T13:56:45.341Z,54.4
2023-12-23T13:58:01.461Z,54.3
2023-12-23T13:59:17.592Z,54.3
2023-12-23T14:00:33.732Z,54.4
2023-12-23T14:03:06.017Z,54.4
2023-12-23T14:04:22.147Z,54.4
2023-12-23T14:05:38.291Z,54.4
2023-12-23T14:06:54.408Z,54.4
2023-12-23T14:08:10.565Z,54.4
2023-12-23T14:09:26.704Z,54.4
2023-12-23T14:10:42.830Z,54.4
2023-12-23T14:11:58.957Z,54.4
2023-12-23T14:13:15.105Z,54.4
2023-12-23T14:14:31.244Z,54.4
2023-12-23T14:15:47.380Z,54.4
2023-12-23T14:17:03.516Z,54.4
2023-12-23T14:18:19.645Z,54.4
2023-12-23T14:19:35.777Z,54.4
2023-12-23T14:20:51.934Z,54.4
2023-12-23T14:22:08.061Z,54.4
2023-12-23T14:23:24.192Z,54.4
2023-12-23T14:24:40.324Z,54.4
2023-12-23T14:25:56.472Z,54.4
2023-12-23T14:27:12.667Z,54.3
2023-12-23T14:28:27.908Z,54.3
2023-12-23T14:29:44.101Z,54.3
2023-12-23T14:30:59.303Z,54.3
2023-12-23T14:32:15.434Z,54.4
2023-12-23T14:33:31.585Z,54.4
2023-12-23T14:34:47.715Z,54.4
2023-12-23T14:36:03.853Z,54.4
2023-12-23T14:37:19.995Z,54.4
2023-12-23T14:38:36.117Z,54.4
2023-12-23T14:39:52.261Z,54.5
2023-12-23T14:41:08.390Z,54.5
2023-12-23T14:42:24.523Z,54.4
2023-12-23T14:43:40.664Z,54.4
2023-12-23T14:44:56.798Z,54.4
2023-12-23T14:46:12.950Z,54.5
2023-12-23T14:47:29.072Z,54.4
2023-12-23T14:48:45.204Z,54.4
2023-12-23T14:50:01.361Z,54.3
2023-12-23T14:51:17.488Z,54.4
2023-12-23T14:52:33.622Z,54.3
2023-12-23T14:53:49.761Z,54.4
2023-12-23T14:55:05.895Z,54.4
2023-12-23T14:56:22.028Z,54.4
2023-12-23T14:57:38.175Z,54.4
2023-12-23T14:58:54.309Z,54.4
2023-12-23T15:00:10.442Z,54.4
2023-12-23T15:01:26.579Z,54.3
2023-12-23T15:02:42.784Z,54.4
2023-12-23T15:03:58.006Z,54.4
2023-12-23T15:05:13.233Z,54.4
2023-12-23T15:06:29.367Z,54.4
2023-12-23T15:07:45.497Z,54.4
2023-12-23T15:09:01.639Z,54.4
2023-12-23T15:10:17.765Z,54.4
2023-12-23T15:11:33.907Z,54.4
2023-12-23T15:12:50.056Z,54.4
2023-12-23T15:14:06.192Z,54.4
2023-12-23T15:15:22.308Z,54.3
2023-12-23T15:16:38.451Z,54.3
2023-12-23T15:17:54.588Z,54.3
2023-12-23T15:19:10.725Z,54.3
2023-12-23T15:20:26.867Z,54.3
2023-12-23T15:21:43.008Z,54.3
2023-12-23T15:22:59.124Z,54.4
2023-12-23T15:24:15.265Z,54.4
2023-12-23T15:25:31.409Z,54.4
2023-12-23T15:26:47.549Z,54.4
2023-12-23T15:28:03.678Z,54.4
2023-12-23T15:29:19.812Z,54.3
2023-12-23T15:30:35.958Z,54.3
2023-12-23T15:31:52.093Z,54.4
2023-12-23T15:33:08.241Z,54.3
2023-12-23T15:34:24.363Z,54.4
2023-12-23T15:35:40.502Z,54.3
2023-12-23T15:36:56.687Z,54.4
2023-12-23T15:38:11.940Z,54.4
2023-12-23T15:39:27.134Z,54.3
2023-12-23T15:40:42.295Z,54.3
2023-12-23T15:41:58.426Z,54.3
2023-12-23T15:43:14.561Z,54.3
2023-12-23T15:44:30.683Z,54.3
2023-12-23T15:45:46.826Z,54.1
2023-12-23T15:47:02.966Z,54.3
2023-12-23T15:48:19.098Z,54.1
2023-12-23T15:49:35.250Z,54.1
2023-12-23T15:50:51.369Z,54.3
2023-12-23T15:52:07.500Z,54.3
2023-12-23T15:53:23.658Z,54.3
2023-12-23T15:54:39.792Z,54.3
2023-12-23T15:55:55.917Z,54.3
2023-12-23T15:57:12.057Z,54.3
2023-12-23T15:58:28.187Z,54.3
2023-12-23T15:59:44.347Z,54.3
2023-12-23T16:01:00.471Z,54.3
2023-12-23T16:02:16.602Z,54.3
2023-12-23T16:03:32.731Z,54.3
2023-12-23T16:04:48.877Z,54.3
2023-12-23T16:06:05.026Z,54.3
2023-12-23T16:07:21.151Z,54.3
2023-12-23T16:08:37.287Z,54.3
2023-12-23T16:09:53.411Z,54.3
2023-12-23T16:11:09.561Z,54.3
2023-12-23T16:12:25.692Z,54.3
2023-12-23T16:13:41.828Z,54.3
2023-12-23T16:14:57.959Z,54.3
2023-12-23T16:16:14.098Z,54.3
2023-12-23T16:17:30.227Z,54.1
2023-12-23T16:18:46.384Z,54.1
2023-12-23T16:20:02.522Z,54.1
2023-12-23T16:21:18.649Z,54.1
2023-12-23T16:22:34.777Z,54.1
2023-12-23T16:23:50.925Z,54.1
2023-12-23T16:26:23.200Z,54.1
2023-12-23T16:27:39.399Z,54.1
2023-12-23T16:28:54.625Z,54.1
2023-12-23T16:30:09.847Z,54.1
2023-12-23T16:31:25.963Z,54.1
2023-12-23T16:32:42.113Z,54.2
2023-12-23T16:33:58.247Z,54.3
2023-12-23T16:35:14.392Z,54.3
2023-12-23T16:36:30.530Z,54.3
2023-12-23T16:37:46.654Z,54.3
2023-12-23T16:39:02.788Z,54.1
2023-12-23T16:40:18.917Z,54.3
2023-12-23T16:41:35.072Z,54.3
2023-12-23T16:42:51.195Z,54.3
2023-12-23T16:44:07.345Z,54.3
2023-12-23T16:45:23.479Z,54.3
2023-12-23T16:46:39.602Z,54.3
2023-12-23T16:47:55.743Z,54.3
2023-12-23T16:49:11.896Z,54.3
2023-12-23T16:50:28.013Z,54.3
2023-12-23T16:51:44.150Z,54.1
2023-12-23T16:53:00.279Z,54.1
2023-12-23T16:54:16.432Z,54.1
2023-12-23T16:55:32.563Z,54.1
2023-12-23T16:56:48.698Z,54.1
2023-12-23T16:58:04.839Z,54.1
2023-12-23T16:59:20.959Z,54.1
2023-12-23T17:00:37.127Z,54.1
2023-12-23T17:01:53.318Z,54.1
2023-12-23T17:03:08.553Z,54.1
2023-12-23T17:04:24.739Z,54.3